createdAt,value
2019-02-08T00:02:51.517Z,3.89
2019-02-08T00:07:57.152Z,3.96
2019-02-08T00:13:03.246Z,3.91
2019-02-08T00:18:08.487Z,3.91
2019-02-08T00:23:13.839Z,3.94
2019-02-08T00:28:20.867Z,3.92
2019-02-08T00:33:27.718Z,3.94
2019-02-08T00:38:33.394Z,3.91
2019-02-08T00:43:39.664Z,3.92
2019-02-08T00:48:45.288Z,3.97
2019-02-08T00:53:50.926Z,4.05
2019-02-08T00:58:56.110Z,4.02
2019-02-08T01:04:02.283Z,3.97
2019-02-08T01:09:10.037Z,4.04
2019-02-08T01:14:15.252Z,4.18
2019-02-08T01:19:20.424Z,4.15
2019-02-08T01:24:27.318Z,4.04
2019-02-08T01:29:32.669Z,4.06
2019-02-08T01:34:37.888Z,4.04
2019-02-08T01:39:43.122Z,4.04
2019-02-08T01:44:48.485Z,4.01
2019-02-08T01:49:53.744Z,3.98
2019-02-08T01:55:03.856Z,3.91
2019-02-08T02:00:14.945Z,3.92
2019-02-08T02:05:20.168Z,3.92
2019-02-08T02:10:31.529Z,3.82
2019-02-08T02:15:36.669Z,3.88
2019-02-08T02:20:42.849Z,3.77
2019-02-08T02:25:49.619Z,3.75
2019-02-08T02:30:54.609Z,3.85
2019-02-08T02:36:00.753Z,3.83
2019-02-08T02:41:06.186Z,3.79
2019-02-08T02:46:11.536Z,3.83
2019-02-08T02:51:16.605Z,3.78
2019-02-08T02:56:21.611Z,3.81
2019-02-08T03:01:26.643Z,3.75
2019-02-08T03:06:31.679Z,3.72
2019-02-08T03:11:36.750Z,3.70
2019-02-08T03:16:41.794Z,3.76
2019-02-08T03:21:46.845Z,3.73
2019-02-08T03:26:52.248Z,3.82
2019-02-08T03:31:57.221Z,3.83
2019-02-08T03:37:20.421Z,3.86
2019-02-08T03:42:25.395Z,3.92
2019-02-08T03:47:30.409Z,3.87
2019-02-08T03:52:35.461Z,3.89
2019-02-08T03:57:40.597Z,3.90
2019-02-08T04:02:46.300Z,4.04
2019-02-08T04:07:51.475Z,4.06
2019-02-08T04:12:56.846Z,4.06
2019-02-08T04:18:01.856Z,3.98
2019-02-08T04:23:07.217Z,4.00
2019-02-08T04:28:12.256Z,3.97
2019-02-08T04:33:17.362Z,3.92
2019-02-08T04:38:22.383Z,3.93
2019-02-08T04:43:27.375Z,3.85
2019-02-08T04:48:32.357Z,3.87
2019-02-08T04:53:37.623Z,3.90
2019-02-08T04:58:42.848Z,3.87
2019-02-08T05:03:47.907Z,3.88
2019-02-08T05:08:52.973Z,3.88
2019-02-08T05:13:59.545Z,3.91
2019-02-08T05:19:04.573Z,3.97
2019-02-08T05:24:09.685Z,4.00
2019-02-08T05:29:15.537Z,4.11
2019-02-08T05:34:20.545Z,4.13
2019-02-08T05:39:25.623Z,4.11
2019-02-08T05:44:30.649Z,4.06
2019-02-08T05:49:35.882Z,4.07
2019-02-08T05:54:41.099Z,4.06
2019-02-08T05:59:46.256Z,4.04
2019-02-08T06:04:51.445Z,3.99
2019-02-08T06:09:56.425Z,3.92
2019-02-08T06:15:01.496Z,3.88
2019-02-08T06:20:07.759Z,3.86
2019-02-08T06:25:13.042Z,3.89
2019-02-08T06:30:20.011Z,3.89
2019-02-08T06:35:25.561Z,3.94
2019-02-08T06:40:32.597Z,3.96
2019-02-08T06:45:38.067Z,3.95
2019-02-08T06:50:43.607Z,4.00
2019-02-08T06:55:53.685Z,3.99
2019-02-08T07:01:13.346Z,4.04
2019-02-08T07:06:46.031Z,3.92
2019-02-08T07:12:08.763Z,3.97
2019-02-08T07:17:28.391Z,3.96
2019-02-08T07:22:51.662Z,3.95
2019-02-08T07:28:10.110Z,4.04
2019-02-08T07:33:32.849Z,4.13
2019-02-08T07:38:47.759Z,4.27
2019-02-08T07:44:11.053Z,4.40
2019-02-08T07:49:38.041Z,4.45
2019-02-08T07:55:00.689Z,4.54
2019-02-08T08:00:26.434Z,4.65
2019-02-08T08:05:42.141Z,4.70
2019-02-08T08:10:55.596Z,4.65
2019-02-08T08:16:08.561Z,4.75
2019-02-08T08:21:39.200Z,4.87
2019-02-08T08:27:03.066Z,5.19
2019-02-08T08:32:17.068Z,5.26
2019-02-08T08:37:51.576Z,5.24
2019-02-08T08:43:08.915Z,5.30
2019-02-08T08:48:53.555Z,5.40
2019-02-08T08:54:47.555Z,5.58
2019-02-08T09:00:21.999Z,5.74
2019-02-08T09:05:54.411Z,5.91
2019-02-08T09:11:26.427Z,6.06
2019-02-08T09:16:46.532Z,6.10
2019-02-08T09:22:09.649Z,6.25
2019-02-08T09:27:41.579Z,6.34
2019-02-08T09:33:22.233Z,6.51
2019-02-08T09:38:53.260Z,6.50
2019-02-08T09:44:49.497Z,6.67
2019-02-08T09:50:45.813Z,6.82
2019-02-08T09:56:12.692Z,6.96
2019-02-08T10:01:46.343Z,7.20
2019-02-08T10:07:09.223Z,7.39
2019-02-08T10:13:07.423Z,7.55
2019-02-08T10:18:49.401Z,7.67
2019-02-08T10:24:25.504Z,7.83
2019-02-08T10:30:06.513Z,8.13
2019-02-08T10:36:00.371Z,9.82
2019-02-08T10:41:30.613Z,11.67
2019-02-08T10:47:13.196Z,11.77
2019-02-08T10:53:03.025Z,11.23
2019-02-08T10:59:10.463Z,11.06
2019-02-08T11:04:51.471Z,11.01
2019-02-08T11:10:31.461Z,10.76
2019-02-08T11:15:49.730Z,12.22
2019-02-08T11:20:54.771Z,14.87
2019-02-08T11:25:58.862Z,16.93
2019-02-08T11:31:02.790Z,18.83
2019-02-08T11:36:06.858Z,17.21
2019-02-08T11:41:10.877Z,15.93
2019-02-08T11:46:14.943Z,16.19
2019-02-08T11:51:20.183Z,17.02
2019-02-08T11:56:30.109Z,16.56
2019-02-08T12:01:37.248Z,13.17
2019-02-08T12:06:43.139Z,11.11
2019-02-08T12:11:48.786Z,10.55
2019-02-08T12:16:54.903Z,10.14
2019-02-08T12:22:00.294Z,11.58
2019-02-08T12:27:05.487Z,11.88
2019-02-08T12:32:10.659Z,12.76
2019-02-08T12:37:15.751Z,13.94
2019-02-08T12:42:21.135Z,14.26
2019-02-08T12:47:26.325Z,15.09
2019-02-08T12:52:31.344Z,14.94
2019-02-08T12:57:36.383Z,14.75
2019-02-08T13:02:41.948Z,15.31
2019-02-08T13:07:47.585Z,15.54
2019-02-08T13:12:53.102Z,15.83
2019-02-08T13:17:58.593Z,16.05
2019-02-08T13:23:03.669Z,16.43
2019-02-08T13:28:08.827Z,15.23
2019-02-08T13:33:13.871Z,14.63
2019-02-08T13:38:18.947Z,14.81
2019-02-08T13:43:24.135Z,15.23
2019-02-08T13:48:29.515Z,15.95
2019-02-08T13:53:34.544Z,15.15
2019-02-08T13:58:38.563Z,14.80
2019-02-08T14:03:43.475Z,15.60
2019-02-08T14:08:48.497Z,15.15
2019-02-08T14:13:53.939Z,14.79
2019-02-08T14:18:58.961Z,13.02
2019-02-08T14:24:04.037Z,11.87
2019-02-08T14:29:10.529Z,11.22
2019-02-08T14:34:15.661Z,10.80
2019-02-08T14:39:21.003Z,10.59
2019-02-08T14:44:27.013Z,10.24
2019-02-08T14:49:33.526Z,9.97
2019-02-08T14:54:40.027Z,9.70
2019-02-08T14:59:46.170Z,9.65
2019-02-08T15:04:51.641Z,9.76
2019-02-08T15:09:56.761Z,9.82
2019-02-08T15:15:01.853Z,9.85
2019-02-08T15:20:10.871Z,9.83
2019-02-08T15:25:16.922Z,9.72
2019-02-08T15:30:23.923Z,9.54
2019-02-08T15:35:29.654Z,9.43
2019-02-08T15:40:41.417Z,9.28
2019-02-08T15:45:58.178Z,9.12
2019-02-08T15:51:04.049Z,9.02
2019-02-08T15:56:19.801Z,8.95
2019-02-08T16:01:26.130Z,8.81
2019-02-08T16:06:32.968Z,8.74
2019-02-08T16:11:38.355Z,8.65
2019-02-08T16:16:43.663Z,8.58
2019-02-08T16:21:49.268Z,8.55
2019-02-08T16:27:00.113Z,8.57
2019-02-08T16:32:05.739Z,8.63
2019-02-08T16:37:11.553Z,8.60
2019-02-08T16:42:16.725Z,8.58
2019-02-08T16:47:23.444Z,8.50
2019-02-08T16:52:28.912Z,8.46
2019-02-08T16:57:34.969Z,8.41
2019-02-08T17:02:40.119Z,8.36
2019-02-08T17:07:45.798Z,8.32
2019-02-08T17:12:50.849Z,8.30
2019-02-08T17:18:01.100Z,8.33
2019-02-08T17:23:06.306Z,8.26
2019-02-08T17:28:12.174Z,8.16
2019-02-08T17:33:17.310Z,8.19
2019-02-08T17:38:23.241Z,8.18
2019-02-08T17:43:28.675Z,8.09
2019-02-08T17:48:33.755Z,8.18
2019-02-08T17:53:40.495Z,8.06
2019-02-08T17:58:47.975Z,7.93
2019-02-08T18:03:53.528Z,7.85
2019-02-08T18:08:58.855Z,7.83
2019-02-08T18:14:09.781Z,7.78
2019-02-08T18:19:26.923Z,7.79
2019-02-08T18:24:32.746Z,7.72
2019-02-08T18:29:38.503Z,7.80
2019-02-08T18:34:45.661Z,7.68
2019-02-08T18:39:54.407Z,7.66
2019-02-08T18:45:07.228Z,7.59
2019-02-08T18:50:17.027Z,7.57
2019-02-08T18:55:22.959Z,7.57
2019-02-08T19:00:40.069Z,7.52
2019-02-08T19:05:42.360Z,7.48
2019-02-08T19:10:48.564Z,7.38
2019-02-08T19:15:54.577Z,7.37
2019-02-08T19:21:00.813Z,7.32
2019-02-08T19:26:11.199Z,7.32
2019-02-08T19:31:16.532Z,7.33
2019-02-08T19:36:21.855Z,7.29
2019-02-08T19:41:27.086Z,7.28
2019-02-08T19:46:32.733Z,7.33
2019-02-08T19:51:38.145Z,7.28
2019-02-08T19:56:43.583Z,7.31
2019-02-08T20:01:48.789Z,7.29
2019-02-08T20:06:54.404Z,7.26
2019-02-08T20:11:59.463Z,7.35
2019-02-08T20:17:05.255Z,7.25
2019-02-08T20:22:12.494Z,7.25
2019-02-08T20:27:17.787Z,7.24
2019-02-08T20:32:22.949Z,7.23
2019-02-08T20:37:33.214Z,7.24
2019-02-08T20:42:38.264Z,7.31
2019-02-08T20:47:43.513Z,7.25
2019-02-08T20:52:49.503Z,7.26
2019-02-08T20:57:54.674Z,7.24
2019-02-08T21:03:00.455Z,7.29
2019-02-08T21:08:07.086Z,7.32
2019-02-08T21:13:12.491Z,7.37
2019-02-08T21:18:17.796Z,7.35
2019-02-08T21:23:23.889Z,7.33
2019-02-08T21:28:31.163Z,7.23
2019-02-08T21:33:37.507Z,7.20
2019-02-08T21:38:43.419Z,7.13
2019-02-08T21:43:48.817Z,7.17
2019-02-08T21:48:59.450Z,7.08
2019-02-08T21:54:11.299Z,7.07
2019-02-08T21:59:16.827Z,7.07
2019-02-08T22:04:22.957Z,7.03
2019-02-08T22:09:29.305Z,7.00
2019-02-08T22:14:43.721Z,6.98
2019-02-08T22:19:48.989Z,7.01
2019-02-08T22:24:54.515Z,7.00
2019-02-08T22:29:59.507Z,6.92
2019-02-08T22:35:04.862Z,6.96
2019-02-08T22:40:12.158Z,7.02
2019-02-08T22:45:31.644Z,7.03
2019-02-08T22:50:36.810Z,7.00
2019-02-08T22:55:41.892Z,6.93
2019-02-08T23:01:26.422Z,7.02
2019-02-08T23:06:31.551Z,7.03
2019-02-08T23:11:36.554Z,7.08
2019-02-08T23:16:51.979Z,7.10
2019-02-08T23:21:57.082Z,7.10
2019-02-08T23:27:02.327Z,7.06
2019-02-08T23:32:07.482Z,7.08
2019-02-08T23:37:12.677Z,7.11
2019-02-08T23:42:17.804Z,7.06
2019-02-08T23:47:23.038Z,7.05
2019-02-08T23:52:28.266Z,6.95
2019-02-08T23:57:33.467Z,6.89
